Nowshera Weather



Nowshera's Current Weather

Temprature 9o mist

mist

Rain: 0 %

Min Temprature9o
Max Temprature9o
Humidity81
Wind Speed2.1 m/h
Sun Rise07:09:13
Sun Set17:03:53
Current Time: 14-Dec-2019 08:13:46
Lat/Lon: 34.02, 71.98




Nowshera's Geo Location



Nowshera's Weather Forecast

Time Overall Temp Min Temp Max Temp Humidity Wind Speed Rain
14-Dec-2019 (Sat)
11:00:00 light rain 11.900 11.900 13.800 63 1.15 m/h 56 %
14:00:00 light rain 14.300 14.300 15.720 54 0.7 m/h 106 %
17:00:00 light rain 13.500 13.500 14.450 58 0.84 m/h 75 %
20:00:00 light rain 11.870 11.870 12.340 70 2.31 m/h 100 %
23:00:00 light rain 11.320 11.320 11.320 73 2.17 m/h 69 %
15-Dec-2019 (Sun)
02:00:00 light rain 10.380 10.380 10.380 78 0.78 m/h 50 %
05:00:00 light rain 9.790 9.790 9.790 83 2.23 m/h 13 %
08:00:00 clear sky 10.260 10.260 10.260 80 2.83 m/h 0 %
11:00:00 clear sky 14.310 14.310 14.310 58 2.71 m/h 0 %
14:00:00 clear sky 16.630 16.630 16.630 41 2.76 m/h 0 %
17:00:00 clear sky 14.790 14.790 14.790 39 1.75 m/h 0 %
20:00:00 clear sky 13.240 13.240 13.240 40 1.61 m/h 0 %
23:00:00 clear sky 11.670 11.670 11.670 48 1.42 m/h 0 %
16-Dec-2019 (Mon)
02:00:00 clear sky 10.600 10.600 10.600 52 1.71 m/h 0 %
05:00:00 clear sky 9.540 9.540 9.540 51 1.96 m/h 0 %
08:00:00 clear sky 9.430 9.430 9.430 43 1.86 m/h 0 %
11:00:00 clear sky 13.970 13.970 13.970 23 2.42 m/h 0 %
14:00:00 clear sky 16.960 16.960 16.960 16 2.79 m/h 0 %
17:00:00 clear sky 15.050 15.050 15.050 21 2.38 m/h 0 %
20:00:00 clear sky 13.340 13.340 13.340 23 2.56 m/h 0 %
23:00:00 clear sky 11.080 11.080 11.080 27 1.48 m/h 0 %
17-Dec-2019 (Tue)
02:00:00 clear sky 9.280 9.280 9.280 34 1.11 m/h 0 %
05:00:00 clear sky 8.150 8.150 8.150 37 1.61 m/h 0 %
08:00:00 few clouds 8.390 8.390 8.390 32 1.72 m/h 0 %
11:00:00 few clouds 13.140 13.140 13.140 17 1.97 m/h 0 %
14:00:00 clear sky 16.190 16.190 16.190 13 2.68 m/h 0 %
17:00:00 few clouds 13.570 13.570 13.570 19 1.52 m/h 0 %
20:00:00 overcast clouds 12.210 12.210 12.210 20 1.15 m/h 0 %
23:00:00 overcast clouds 10.440 10.440 10.440 25 1.04 m/h 0 %
18-Dec-2019 (Wed)
02:00:00 overcast clouds 9.020 9.020 9.020 27 1.11 m/h 0 %
05:00:00 overcast clouds 8.830 8.830 8.830 25 0.1 m/h 0 %
08:00:00 overcast clouds 9.450 9.450 9.450 26 0.66 m/h 0 %
11:00:00 overcast clouds 13.320 13.320 13.320 19 1.45 m/h 0 %
14:00:00 overcast clouds 15.930 15.930 15.930 15 1.05 m/h 0 %
17:00:00 broken clouds 12.950 12.950 12.950 24 0.35 m/h 0 %
20:00:00 scattered clouds 11.560 11.560 11.560 24 0.7 m/h 0 %
23:00:00 broken clouds 9.910 9.910 9.910 28 0.59 m/h 0 %
19-Dec-2019 (Thu)
02:00:00 scattered clouds 8.500 8.500 8.500 31 0.93 m/h 0 %
05:00:00 scattered clouds 7.770 7.770 7.770 31 0.72 m/h 0 %
08:00:00 clear sky 8.530 8.530 8.530 32 1.18 m/h 0 %

Famous Cities (61)